Time;durP1;ratioP1;P1;durP2;ratioP2;P2;SDS_P1;SDS_P2;PMS_P1;PMS_P2;Temp;Humidity;BMP_temperature;BMP_pressure;BME280_temperature;BME280_humidity;BME280_pressure;Samples;Min_cycle;Max_cycle;Signal;HPM_P1;HPM_P2
2021/01/30 00:00:39;;;;;;;7.03;6.53;;;9.10;99.90;;;;;;5049523;28;20180;-77
2021/01/30 00:03:06;;;;;;;10.33;7.30;;;9.10;99.90;;;;;;5032090;28;20716;-77
2021/01/30 00:05:33;;;;;;;8.80;7.93;;;9.10;99.90;;;;;;5049898;28;20379;-80
2021/01/30 00:07:59;;;;;;;8.03;7.40;;;9.00;99.90;;;;;;5028385;28;20456;-77
2021/01/30 00:10:25;;;;;;;8.37;7.77;;;9.10;99.90;;;;;;5050340;28;20430;-76
2021/01/30 00:12:51;;;;;;;10.33;9.50;;;9.10;99.90;;;;;;5048941;28;21097;-80
2021/01/30 00:15:20;;;;;;;10.30;8.73;;;9.00;99.90;;;;;;5043227;28;20519;-77
2021/01/30 00:17:46;;;;;;;10.47;9.53;;;8.90;99.90;;;;;;5050583;28;20427;-77
2021/01/30 00:20:15;;;;;;;11.00;9.90;;;8.80;99.90;;;;;;5017932;28;20401;-77
2021/01/30 00:22:40;;;;;;;11.90;10.80;;;8.80;99.90;;;;;;5051684;28;20178;-77
2021/01/30 00:25:10;;;;;;;12.60;11.43;;;8.80;99.90;;;;;;5051292;28;20411;-76
2021/01/30 00:27:36;;;;;;;12.93;11.63;;;8.90;99.90;;;;;;5051183;28;20478;-77
2021/01/30 00:30:09;;;;;;;13.27;12.03;;;8.90;99.90;;;;;;5033517;28;20427;-78
2021/01/30 00:32:34;;;;;;;14.27;12.87;;;9.00;99.90;;;;;;5051237;28;20404;-78
2021/01/30 00:35:00;;;;;;;14.53;13.10;;;8.90;99.90;;;;;;5052249;28;20399;-77
2021/01/30 00:37:26;;;;;;;14.40;13.00;;;8.90;99.90;;;;;;5051942;28;20525;-77
2021/01/30 00:39:53;;;;;;;17.97;13.87;;;8.90;99.90;;;;;;5049138;28;20262;-78
2021/01/30 00:42:22;;;;;;;16.13;13.03;;;8.80;99.90;;;;;;5033504;28;20397;-77
2021/01/30 00:44:49;;;;;;;16.20;13.20;;;8.80;99.90;;;;;;5042771;28;20402;-75
2021/01/30 00:47:15;;;;;;;18.30;13.00;;;8.70;99.90;;;;;;5051283;28;20420;-75
2021/01/30 00:49:42;;;;;;;14.53;12.10;;;8.60;99.90;;;;;;5050819;28;20433;-76
2021/01/30 00:52:10;;;;;;;15.63;13.00;;;8.50;99.90;;;;;;5051953;28;20443;-75
2021/01/30 00:54:36;;;;;;;15.07;13.63;;;8.40;99.90;;;;;;5051077;28;20968;-76
2021/01/30 00:57:02;;;;;;;14.63;11.60;;;8.30;99.90;;;;;;5033629;28;20386;-76
2021/01/30 00:59:28;;;;;;;12.60;11.30;;;8.20;99.90;;;;;;5051316;28;20393;-77
2021/01/30 01:01:54;;;;;;;14.60;12.97;;;8.20;99.90;;;;;;5033087;28;20415;-77
2021/01/30 01:04:21;;;;;;;12.60;11.13;;;8.10;99.90;;;;;;5051925;28;20372;-77
2021/01/30 01:06:48;;;;;;;13.57;12.00;;;8.20;99.90;;;;;;5051039;28;20397;-77
2021/01/30 01:09:15;;;;;;;13.70;12.30;;;8.20;99.90;;;;;;5051247;28;20450;-77
2021/01/30 01:11:43;;;;;;;13.30;11.90;;;8.20;99.90;;;;;;5050721;28;20474;-77
2021/01/30 01:14:09;;;;;;;13.20;10.43;;;8.10;99.90;;;;;;5047566;28;20423;-81
2021/01/30 01:16:35;;;;;;;13.30;11.90;;;8.10;99.90;;;;;;5047438;28;20757;-82
2021/01/30 01:19:01;;;;;;;13.03;11.70;;;8.10;99.90;;;;;;5016502;28;20199;-77
2021/01/30 01:21:27;;;;;;;13.00;11.57;;;8.20;99.90;;;;;;5017331;28;20426;-78
2021/01/30 01:23:53;;;;;;;13.60;11.17;;;8.20;99.90;;;;;;5051817;28;20426;-77
2021/01/30 01:26:19;;;;;;;14.47;12.57;;;8.20;99.90;;;;;;5055468;28;20184;-77
2021/01/30 01:28:46;;;;;;;13.30;12.00;;;8.20;99.90;;;;;;5060265;28;20565;-77
2021/01/30 01:31:13;;;;;;;12.23;10.80;;;8.10;99.90;;;;;;5052390;28;20393;-77
2021/01/30 01:33:39;;;;;;;13.07;11.77;;;8.00;99.90;;;;;;5052490;28;20418;-77
2021/01/30 01:36:09;;;;;;;13.47;12.13;;;7.90;99.90;;;;;;5055220;28;20410;-78
2021/01/30 01:38:35;;;;;;;11.60;10.50;;;8.00;99.90;;;;;;5053219;28;20413;-81
2021/01/30 01:41:02;;;;;;;20.00;12.60;;;7.90;99.90;;;;;;5055218;28;20443;-77
2021/01/30 01:43:29;;;;;;;13.57;12.10;;;7.80;99.90;;;;;;5069588;28;20495;-77
2021/01/30 01:46:09;;;;;;;12.60;11.40;;;7.80;99.90;;;;;;5079421;28;20416;-77
2021/01/30 01:48:40;;;;;;;12.10;10.90;;;7.80;99.90;;;;;;5092873;28;20434;-82
2021/01/30 01:51:10;;;;;;;12.97;11.20;;;7.80;99.90;;;;;;5094620;28;20401;-77
2021/01/30 01:53:40;;;;;;;12.70;11.43;;;7.80;99.90;;;;;;5093443;28;20398;-80
2021/01/30 01:56:23;;;;;;;11.10;9.37;;;7.90;99.90;;;;;;5095503;28;20394;-77
2021/01/30 01:58:51;;;;;;;9.53;8.63;;;7.70;99.90;;;;;;5092319;28;20464;-77
2021/01/30 02:01:18;;;;;;;10.70;9.60;;;7.70;99.90;;;;;;5054881;28;20896;-77
2021/01/30 02:03:50;;;;;;;11.83;10.50;;;7.60;99.90;;;;;;5054346;28;20468;-77
2021/01/30 02:06:16;;;;;;;12.77;10.00;;;7.70;99.90;;;;;;5053131;28;20400;-77
2021/01/30 02:08:42;;;;;;;11.90;10.10;;;7.60;99.90;;;;;;5063308;28;20427;-77
2021/01/30 02:11:08;;;;;;;10.90;9.80;;;7.70;99.90;;;;;;5074632;28;20414;-77
2021/01/30 02:13:39;;;;;;;13.27;10.60;;;7.60;99.90;;;;;;5075038;28;20390;-79
2021/01/30 02:16:31;;;;;;;11.90;10.27;;;7.60;99.90;;;;;;5077475;28;20269;-77
2021/01/30 02:19:15;;;;;;;12.70;10.57;;;7.60;99.90;;;;;;5092985;28;20470;-78
2021/01/30 02:21:46;;;;;;;12.57;10.63;;;7.50;99.40;;;;;;5080622;28;20391;-77
2021/01/30 02:24:52;;;;;;;10.47;9.47;;;7.40;99.40;;;;;;5074341;28;20388;-77
2021/01/30 02:27:37;;;;;;;11.23;10.07;;;7.40;98.90;;;;;;5073415;28;20427;-77
2021/01/30 02:30:35;;;;;;;12.10;10.97;;;7.20;99.30;;;;;;5040816;28;20516;-77
2021/01/30 02:33:20;;;;;;;11.87;10.70;;;7.20;99.00;;;;;;5040390;28;20415;-78
2021/01/30 02:36:29;;;;;;;11.90;10.70;;;7.10;99.00;;;;;;5039270;28;21039;-77
2021/01/30 02:39:24;;;;;;;12.13;10.50;;;7.10;99.00;;;;;;4963490;28;20539;-77
2021/01/30 02:42:11;;;;;;;12.43;10.93;;;7.10;98.50;;;;;;5043547;28;20391;-77
2021/01/30 02:45:00;;;;;;;15.13;11.90;;;7.00;98.50;;;;;;5041575;28;20442;-82
2021/01/30 02:47:29;;;;;;;14.60;11.70;;;7.10;98.40;;;;;;5043554;28;20449;-78
2021/01/30 02:50:04;;;;;;;15.40;12.27;;;7.00;98.70;;;;;;5041769;28;20452;-77
2021/01/30 02:52:31;;;;;;;14.90;11.85;;;7.10;98.50;;;;;;5024185;28;20624;-77
2021/01/30 02:54:58;;;;;;;13.48;12.07;;;7.10;98.10;;;;;;5033843;28;20748;-77
2021/01/30 02:57:26;;;;;;;19.00;13.30;;;7.10;98.00;;;;;;5034474;28;20531;-77
2021/01/30 02:59:55;;;;;;;16.80;12.67;;;7.20;98.30;;;;;;5033737;28;20393;-78
2021/01/30 03:02:23;;;;;;;18.10;13.80;;;7.10;98.60;;;;;;5034285;28;20396;-77
2021/01/30 03:04:52;;;;;;;16.80;14.30;;;7.10;98.90;;;;;;5033217;28;20539;-77
2021/01/30 03:07:27;;;;;;;18.17;14.13;;;7.00;99.40;;;;;;5016494;28;20729;-77
2021/01/30 03:09:52;;;;;;;22.60;15.20;;;6.90;99.50;;;;;;5033316;28;20194;-77
2021/01/30 03:12:30;;;;;;;18.67;13.60;;;6.90;99.50;;;;;;5034313;28;20198;-77
2021/01/30 03:15:02;;;;;;;15.70;12.85;;;6.90;99.90;;;;;;5016703;28;20182;-77
2021/01/30 03:17:31;;;;;;;15.52;12.32;;;6.90;99.90;;;;;;5034040;28;20284;-77
2021/01/30 03:19:59;;;;;;;18.67;12.77;;;6.60;99.90;;;;;;5033200;28;20186;-77
2021/01/30 03:22:28;;;;;;;17.48;12.80;;;6.20;99.90;;;;;;5033883;28;20175;-77
2021/01/30 03:24:54;;;;;;;16.95;11.63;;;6.30;99.90;;;;;;5015195;28;20202;-77
2021/01/30 03:27:23;;;;;;;12.73;10.40;;;6.30;99.90;;;;;;5033589;28;20186;-77
2021/01/30 03:29:50;;;;;;;13.23;10.43;;;6.30;99.90;;;;;;5047709;28;20226;-77
2021/01/30 03:32:18;;;;;;;15.13;11.00;;;6.30;99.90;;;;;;5053664;28;20186;-77
2021/01/30 03:34:46;;;;;;;14.02;10.40;;;6.30;99.90;;;;;;5035052;28;20177;-78
2021/01/30 03:37:12;;;;;;;11.45;10.25;;;6.30;99.90;;;;;;5053224;28;20177;-74
2021/01/30 03:39:37;;;;;;;13.13;11.20;;;6.20;99.90;;;;;;5053490;28;20177;-78
2021/01/30 03:42:04;;;;;;;14.60;12.43;;;6.30;99.90;;;;;;5035132;28;20766;-74
2021/01/30 03:44:30;;;;;;;14.35;12.13;;;6.20;99.90;;;;;;5033696;28;20412;-76
2021/01/30 03:46:55;;;;;;;13.20;11.23;;;6.20;99.90;;;;;;5051893;28;20266;-74
2021/01/30 03:49:21;;;;;;;14.10;12.17;;;6.30;99.90;;;;;;5052975;28;20206;-74
2021/01/30 03:51:47;;;;;;;14.23;12.30;;;6.20;99.10;;;;;;5034685;28;20231;-74
2021/01/30 03:54:13;;;;;;;13.13;11.77;;;6.20;99.10;;;;;;5053292;28;20532;-74
2021/01/30 03:56:42;;;;;;;13.73;11.38;;;6.00;99.30;;;;;;5052934;28;20204;-79
2021/01/30 03:59:08;;;;;;;13.55;12.13;;;6.00;99.20;;;;;;5033819;28;20528;-74
2021/01/30 04:01:35;;;;;;;14.77;12.63;;;6.10;99.40;;;;;;5035371;28;20212;-74
2021/01/30 04:04:01;;;;;;;14.02;12.45;;;6.10;99.30;;;;;;5052031;28;20251;-74
2021/01/30 04:06:26;;;;;;;15.60;13.47;;;6.00;98.90;;;;;;5053055;28;20617;-74
2021/01/30 04:08:52;;;;;;;14.67;11.73;;;5.80;98.80;;;;;;5052084;28;20455;-74
2021/01/30 04:11:26;;;;;;;16.97;13.70;;;5.50;99.60;;;;;;5035253;28;20204;-74
2021/01/30 04:13:52;;;;;;;18.45;13.77;;;5.60;99.40;;;;;;5048649;28;20521;-74
2021/01/30 04:16:18;;;;;;;19.00;15.25;;;5.70;99.30;;;;;;5032925;28;20178;-74
2021/01/30 04:18:44;;;;;;;20.03;14.47;;;5.70;99.30;;;;;;5032084;28;20686;-77
2021/01/30 04:21:10;;;;;;;20.17;15.50;;;5.60;99.00;;;;;;5015195;28;20173;-74
2021/01/30 04:23:35;;;;;;;18.03;13.77;;;5.40;99.40;;;;;;5032727;28;20217;-74
2021/01/30 04:26:01;;;;;;;17.00;13.80;;;5.40;99.90;;;;;;5031912;28;20779;-74
2021/01/30 04:28:27;;;;;;;18.40;15.07;;;5.30;99.90;;;;;;5034789;28;20225;-74
2021/01/30 04:30:53;;;;;;;20.07;16.00;;;5.30;99.90;;;;;;5051878;28;20227;-74
2021/01/30 04:33:19;;;;;;;17.10;14.23;;;5.40;99.80;;;;;;5052609;28;20232;-74
2021/01/30 04:35:44;;;;;;;17.67;15.47;;;5.50;99.50;;;;;;5052887;28;20412;-79
2021/01/30 04:38:10;;;;;;;18.23;15.10;;;5.50;99.40;;;;;;5052716;28;20192;-74
2021/01/30 04:40:39;;;;;;;18.40;15.40;;;5.20;99.90;;;;;;5051266;28;20235;-74
2021/01/30 04:43:19;;;;;;;21.20;16.50;;;5.20;99.90;;;;;;5051698;28;20654;-74
2021/01/30 04:46:11;;;;;;;19.63;15.48;;;5.30;99.90;;;;;;5051555;28;20668;-79
2021/01/30 04:48:57;;;;;;;18.67;15.77;;;5.20;99.60;;;;;;5052347;28;20194;-74
2021/01/30 04:51:31;;;;;;;21.15;16.10;;;5.10;99.90;;;;;;5052525;28;20174;-74
2021/01/30 04:54:19;;;;;;;20.00;15.52;;;5.00;99.90;;;;;;5049949;28;20225;-74
2021/01/30 04:56:57;;;;;;;20.90;16.10;;;4.80;99.90;;;;;;5052018;28;20640;-77
2021/01/30 04:59:41;;;;;;;20.75;15.88;;;4.70;99.90;;;;;;5051774;28;20543;-74
2021/01/30 05:02:22;;;;;;;20.60;16.08;;;4.70;99.90;;;;;;5051189;28;20544;-73
2021/01/30 05:04:51;;;;;;;18.50;15.60;;;4.80;99.90;;;;;;5050988;28;20168;-75
2021/01/30 05:07:38;;;;;;;21.67;16.67;;;4.80;99.90;;;;;;5052173;28;20180;-74
2021/01/30 05:10:18;;;;;;;20.40;14.55;;;4.80;99.90;;;;;;5051302;28;20185;-74
2021/01/30 05:13:10;;;;;;;18.10;14.20;;;4.60;99.90;;;;;;5051910;28;20166;-79
2021/01/30 05:16:08;;;;;;;21.02;15.73;;;4.70;99.90;;;;;;5051437;28;20177;-74
2021/01/30 05:18:37;;;;;;;20.98;16.05;;;4.80;99.90;;;;;;5048390;28;20261;-74
2021/01/30 05:21:13;;;;;;;26.35;17.65;;;4.80;99.90;;;;;;5051480;28;20207;-74
2021/01/30 05:23:42;;;;;;;22.20;15.77;;;4.80;99.90;;;;;;5053264;28;20217;-74
2021/01/30 05:26:47;;;;;;;23.00;16.77;;;4.90;99.90;;;;;;5051143;28;20185;-74
2021/01/30 05:29:16;;;;;;;20.42;15.32;;;4.90;99.90;;;;;;5060235;28;20224;-74
2021/01/30 05:31:54;;;;;;;17.35;14.25;;;4.80;99.90;;;;;;5090347;28;20705;-74
2021/01/30 05:34:44;;;;;;;21.95;14.00;;;4.60;99.90;;;;;;5085545;28;20177;-77
2021/01/30 05:37:35;;;;;;;17.83;14.18;;;4.50;99.90;;;;;;5068437;28;20693;-77
2021/01/30 05:40:28;;;;;;;15.50;13.25;;;4.30;99.90;;;;;;5091478;28;20168;-77
2021/01/30 05:43:06;;;;;;;18.70;14.52;;;4.40;99.90;;;;;;5074752;28;20176;-77
2021/01/30 05:45:41;;;;;;;16.23;12.98;;;4.40;99.90;;;;;;5071817;28;20556;-76
2021/01/30 05:48:13;;;;;;;14.43;12.30;;;4.40;99.70;;;;;;5070931;28;20204;-77
2021/01/30 05:51:20;;;;;;;18.50;13.48;;;4.60;99.90;;;;;;5036249;28;20576;-77
2021/01/30 05:53:46;;;;;;;16.23;13.32;;;4.60;99.70;;;;;;5042124;28;20186;-81
2021/01/30 05:56:12;;;;;;;17.97;15.10;;;4.70;99.70;;;;;;5071416;28;20191;-76
2021/01/30 05:58:44;;;;;;;18.17;15.07;;;4.80;99.80;;;;;;5071313;28;20169;-77
2021/01/30 06:01:15;;;;;;;15.93;13.52;;;4.90;99.50;;;;;;5067721;28;20526;-77
2021/01/30 06:04:23;;;;;;;15.77;13.38;;;4.90;98.60;;;;;;5071563;28;20542;-77
2021/01/30 06:06:55;;;;;;;15.85;13.40;;;4.90;98.70;;;;;;5070742;28;20271;-81
2021/01/30 06:09:42;;;;;;;16.15;13.48;;;4.90;98.90;;;;;;5069255;28;20194;-77
2021/01/30 06:12:24;;;;;;;18.80;15.48;;;4.80;99.20;;;;;;5074525;28;20161;-77
2021/01/30 06:14:51;;;;;;;12.18;10.93;;;4.90;98.90;;;;;;5074074;28;20185;-81
2021/01/30 06:17:29;;;;;;;12.77;11.45;;;5.00;98.80;;;;;;5057110;28;20645;-77
2021/01/30 06:20:17;;;;;;;14.63;12.82;;;4.90;97.80;;;;;;5072690;28;20647;-77
2021/01/30 06:22:44;;;;;;;13.95;11.40;;;4.90;97.80;;;;;;5068636;28;20172;-77
2021/01/30 06:25:30;;;;;;;11.73;10.48;;;4.80;98.10;;;;;;5053931;28;20177;-77
2021/01/30 06:28:03;;;;;;;15.40;11.88;;;4.90;97.70;;;;;;5048000;28;20234;-77
2021/01/30 06:30:34;;;;;;;12.45;11.00;;;4.90;98.10;;;;;;5065874;28;20185;-77
2021/01/30 06:33:04;;;;;;;12.98;11.20;;;4.70;98.50;;;;;;5074074;28;20172;-77
2021/01/30 06:35:38;;;;;;;12.18;10.88;;;4.80;98.20;;;;;;5074782;28;20169;-77
2021/01/30 06:38:15;;;;;;;11.68;10.57;;;4.90;97.80;;;;;;5056349;28;20184;-77
2021/01/30 06:40:56;;;;;;;10.68;9.57;;;5.00;97.20;;;;;;5035931;28;20607;-77
2021/01/30 06:43:30;;;;;;;10.18;9.30;;;5.00;96.60;;;;;;5034524;28;20169;-77
2021/01/30 06:46:11;;;;;;;11.23;10.13;;;4.90;96.40;;;;;;5038254;28;20176;-77
2021/01/30 06:48:41;;;;;;;10.85;9.82;;;4.90;96.80;;;;;;5074618;28;20221;-77
2021/01/30 06:51:22;;;;;;;10.35;9.40;;;5.00;96.60;;;;;;5042640;28;20193;-77
2021/01/30 06:53:47;;;;;;;10.43;9.50;;;4.90;96.10;;;;;;5054786;28;20267;-77
2021/01/30 06:56:22;;;;;;;9.00;8.20;;;4.90;97.00;;;;;;5053409;28;20305;-77
2021/01/30 06:58:50;;;;;;;10.30;9.30;;;4.90;97.00;;;;;;5054506;28;20166;-77
2021/01/30 07:01:23;;;;;;;10.10;9.02;;;5.00;96.80;;;;;;5036086;28;20174;-77
2021/01/30 07:03:51;;;;;;;8.93;8.13;;;4.90;95.90;;;;;;5071407;28;20178;-77
2021/01/30 07:06:29;;;;;;;9.43;8.52;;;4.90;96.20;;;;;;5073496;28;20185;-77
2021/01/30 07:09:04;;;;;;;9.02;8.23;;;4.80;95.60;;;;;;5073383;28;20266;-78
2021/01/30 07:11:39;;;;;;;9.38;8.57;;;4.80;96.10;;;;;;5066342;28;20169;-77
2021/01/30 07:14:09;;;;;;;8.80;8.00;;;4.80;95.70;;;;;;5033483;28;20260;-77
2021/01/30 07:16:51;;;;;;;8.88;8.07;;;4.90;95.60;;;;;;5035351;28;20318;-74
2021/01/30 07:19:42;;;;;;;8.75;7.95;;;4.90;95.50;;;;;;5016044;28;20167;-75
2021/01/30 07:22:35;;;;;;;9.15;8.35;;;4.90;95.10;;;;;;5032293;28;20171;-76
2021/01/30 07:25:12;;;;;;;10.77;9.68;;;4.90;95.30;;;;;;5033431;28;20179;-77
2021/01/30 07:27:46;;;;;;;8.90;8.10;;;4.90;95.30;;;;;;5030036;28;20225;-76
2021/01/30 07:30:23;;;;;;;9.50;8.60;;;4.90;95.60;;;;;;5035312;28;20248;-76
2021/01/30 07:33:15;;;;;;;9.68;8.88;;;5.00;95.30;;;;;;5036304;28;20162;-76
2021/01/30 07:35:52;;;;;;;10.25;9.35;;;4.90;95.10;;;;;;5040640;28;20678;-76
2021/01/30 07:38:24;;;;;;;8.85;7.97;;;4.80;95.50;;;;;;5073033;28;20234;-76
2021/01/30 07:41:07;;;;;;;9.70;8.70;;;4.90;95.30;;;;;;5062568;28;20238;-76
2021/01/30 07:43:46;;;;;;;8.80;8.00;;;5.00;95.10;;;;;;5043943;28;20229;-77
2021/01/30 07:46:19;;;;;;;8.70;7.88;;;5.00;95.10;;;;;;5052224;28;20614;-76
2021/01/30 07:49:10;;;;;;;9.20;8.35;;;5.00;94.50;;;;;;5069287;28;20723;-75
2021/01/30 07:51:45;;;;;;;9.57;8.68;;;4.90;94.80;;;;;;5033709;28;20723;-74
2021/01/30 07:54:12;;;;;;;10.43;9.43;;;4.80;95.20;;;;;;5033010;28;20532;-75
2021/01/30 07:57:15;;;;;;;9.60;8.70;;;4.80;95.30;;;;;;5053115;28;20185;-75
2021/01/30 08:00:05;;;;;;;9.82;8.90;;;4.80;95.20;;;;;;5053223;28;20565;-75
2021/01/30 08:03:05;;;;;;;9.38;8.48;;;4.80;95.10;;;;;;5032758;28;20234;-75
2021/01/30 08:05:37;;;;;;;8.75;7.95;;;4.80;95.70;;;;;;5016936;28;20599;-75
2021/01/30 08:08:12;;;;;;;9.50;8.63;;;4.80;95.00;;;;;;5043128;28;20206;-78
2021/01/30 08:10:54;;;;;;;10.93;9.85;;;4.80;95.20;;;;;;5043555;28;20234;-75
2021/01/30 08:13:39;;;;;;;9.93;9.02;;;4.80;95.40;;;;;;5033011;28;20170;-75
2021/01/30 08:16:04;;;;;;;10.38;9.35;;;4.90;95.00;;;;;;5054524;28;20176;-75
2021/01/30 08:18:39;;;;;;;8.17;7.47;;;4.90;94.80;;;;;;5043410;28;20595;-75
2021/01/30 08:21:11;;;;;;;9.60;8.70;;;4.70;94.30;;;;;;5061681;28;20168;-75
2021/01/30 08:24:06;;;;;;;9.45;8.55;;;4.80;94.80;;;;;;5041092;28;20212;-75
2021/01/30 08:26:38;;;;;;;8.18;7.45;;;4.60;94.00;;;;;;5034647;28;20161;-75
2021/01/30 08:29:13;;;;;;;8.68;7.93;;;4.50;94.30;;;;;;5051984;28;20244;-75
2021/01/30 08:31:41;;;;;;;8.38;7.68;;;4.40;94.00;;;;;;5038482;28;20227;-75
2021/01/30 08:34:18;;;;;;;8.95;8.05;;;4.40;94.10;;;;;;5071135;28;20176;-75
2021/01/30 08:36:45;;;;;;;9.95;9.05;;;4.40;94.00;;;;;;5072388;28;20165;-75
2021/01/30 08:39:33;;;;;;;9.20;8.38;;;4.50;94.40;;;;;;5037126;28;20529;-75
2021/01/30 08:41:59;;;;;;;7.90;7.30;;;4.50;94.00;;;;;;5071833;28;20198;-79
2021/01/30 08:44:49;;;;;;;8.83;8.03;;;4.60;94.00;;;;;;5054201;28;20268;-75
2021/01/30 08:47:17;;;;;;;8.77;7.93;;;4.60;94.20;;;;;;5053690;28;20184;-75
2021/01/30 08:50:04;;;;;;;8.48;7.68;;;4.60;94.00;;;;;;5054804;28;20217;-75
2021/01/30 08:52:38;;;;;;;8.63;7.82;;;4.40;94.10;;;;;;5034511;28;20169;-74
2021/01/30 08:55:35;;;;;;;8.85;8.05;;;4.10;93.90;;;;;;5051518;28;20176;-75
2021/01/30 08:58:01;;;;;;;9.40;8.60;;;4.00;94.60;;;;;;5033762;28;20564;-75
2021/01/30 09:00:27;;;;;;;9.38;8.43;;;4.20;95.00;;;;;;5029655;28;20204;-74
2021/01/30 09:02:57;;;;;;;11.20;9.63;;;4.30;94.80;;;;;;5052445;28;20264;-74
2021/01/30 09:05:26;;;;;;;9.35;8.45;;;4.40;94.80;;;;;;5051611;28;20165;-74
2021/01/30 09:07:57;;;;;;;8.95;8.05;;;4.20;94.60;;;;;;5069577;28;20528;-74
2021/01/30 09:10:23;;;;;;;10.25;9.02;;;4.10;94.60;;;;;;5039778;28;20642;-75
2021/01/30 09:13:03;;;;;;;9.27;8.33;;;4.30;95.40;;;;;;5040220;28;20993;-74
2021/01/30 09:15:41;;;;;;;8.80;7.90;;;4.30;95.00;;;;;;5020458;28;20590;-75
2021/01/30 09:18:15;;;;;;;8.95;7.97;;;4.30;95.00;;;;;;5031019;28;20185;-75
2021/01/30 09:20:52;;;;;;;8.65;7.85;;;4.30;95.30;;;;;;5047170;28;20192;-74
2021/01/30 09:23:39;;;;;;;8.75;7.93;;;4.50;95.10;;;;;;5051691;28;20158;-76
2021/01/30 09:26:29;;;;;;;8.38;7.60;;;4.20;94.40;;;;;;5037622;28;20500;-73
2021/01/30 09:28:58;;;;;;;8.10;7.40;;;4.10;95.10;;;;;;5032782;28;20239;-73
2021/01/30 09:31:25;;;;;;;8.80;7.85;;;4.30;95.40;;;;;;5040514;28;20181;-72
2021/01/30 09:34:09;;;;;;;8.63;7.82;;;4.40;95.10;;;;;;5034040;28;20260;-72
2021/01/30 09:36:47;;;;;;;7.90;7.20;;;4.20;94.90;;;;;;5034027;28;20169;-74
2021/01/30 09:39:25;;;;;;;18.65;13.32;;;4.00;95.30;;;;;;5040135;28;20173;-82
2021/01/30 09:41:51;;;;;;;13.07;9.75;;;4.40;98.90;;;;;;5014471;28;20180;-83
2021/01/30 09:44:25;;;;;;;11.82;10.40;;;5.10;99.40;;;;;;5051036;28;20253;-82
2021/01/30 09:46:57;;;;;;;10.40;8.73;;;6.00;98.80;;;;;;5048164;28;20703;-76
2021/01/30 09:49:28;;;;;;;12.00;10.43;;;6.70;95.80;;;;;;5043502;28;20220;-81
2021/01/30 09:51:58;;;;;;;8.90;8.10;;;7.30;96.10;;;;;;5052492;28;20414;-82
2021/01/30 09:54:27;;;;;;;9.23;8.40;;;6.70;90.30;;;;;;5017772;28;20411;-82
2021/01/30 09:57:04;;;;;;;10.60;9.60;;;7.30;93.40;;;;;;5044890;28;20432;-82
2021/01/30 09:59:30;;;;;;;9.03;8.23;;;7.90;91.20;;;;;;5050356;28;20478;-82
2021/01/30 10:02:16;;;;;;;9.10;8.30;;;8.50;89.10;;;;;;5021495;28;20504;-83
2021/01/30 10:04:42;;;;;;;8.90;8.13;;;8.50;86.90;;;;;;5042485;28;20815;-83
2021/01/30 10:07:23;;;;;;;9.43;8.53;;;8.70;85.00;;;;;;5041641;28;20417;-83
2021/01/30 10:09:49;;;;;;;8.90;8.13;;;8.30;85.70;;;;;;5035400;28;20450;-82
2021/01/30 10:12:19;;;;;;;8.83;8.03;;;8.40;82.80;;;;;;5035095;28;20930;-83
2021/01/30 10:14:49;;;;;;;7.77;7.17;;;7.60;89.30;;;;;;5017843;28;20447;-82
2021/01/30 10:17:21;;;;;;;8.13;7.43;;;7.90;87.80;;;;;;5035020;28;20407;-82
2021/01/30 10:20:05;;;;;;;8.97;8.20;;;7.60;88.20;;;;;;5035623;28;20390;-82
2021/01/30 10:22:50;;;;;;;7.77;7.27;;;8.30;88.50;;;;;;5054744;28;20381;-82
2021/01/30 10:25:23;;;;;;;7.70;7.13;;;8.80;86.00;;;;;;5054921;28;20394;-82
2021/01/30 10:27:49;;;;;;;7.17;6.67;;;9.00;85.00;;;;;;5043498;28;20467;-82
2021/01/30 10:30:18;;;;;;;7.43;6.83;;;9.20;84.40;;;;;;5017130;28;20507;-82
2021/01/30 10:32:51;;;;;;;6.83;6.30;;;9.20;82.10;;;;;;5010204;28;20432;-83
2021/01/30 10:35:26;;;;;;;6.07;5.67;;;9.50;82.20;;;;;;5041915;28;20439;-82
2021/01/30 10:38:10;;;;;;;6.37;5.87;;;9.90;84.00;;;;;;5039331;28;20390;-82
2021/01/30 10:40:39;;;;;;;6.90;6.30;;;9.50;78.00;;;;;;5037818;28;20405;-82
2021/01/30 10:43:20;;;;;;;5.83;5.33;;;9.60;82.20;;;;;;5034583;28;20943;-83
2021/01/30 10:45:53;;;;;;;4.97;4.67;;;10.00;80.40;;;;;;5027092;28;20850;-89
2021/01/30 10:48:23;;;;;;;5.20;4.90;;;8.40;72.70;;;;;;5043271;28;20517;-88
2021/01/30 10:50:50;;;;;;;4.80;4.50;;;7.00;75.90;;;;;;5023993;28;20400;-88
2021/01/30 10:53:22;;;;;;;4.85;4.55;;;6.00;82.10;;;;;;5052463;28;20456;-88
2021/01/30 10:55:49;;;;;;;5.07;4.72;;;6.20;85.40;;;;;;5037277;28;20197;-89
2021/01/30 10:58:24;;;;;;;4.50;4.22;;;6.30;85.60;;;;;;5022291;28;20189;-88
2021/01/30 11:01:26;;;;;;;4.68;4.47;;;6.20;85.20;;;;;;5004364;28;20170;-89
2021/01/30 11:03:53;;;;;;;4.97;4.57;;;6.10;85.80;;;;;;5041489;28;20198;-88
2021/01/30 11:06:41;;;;;;;4.55;4.35;;;6.00;85.10;;;;;;5042299;28;20205;-89
2021/01/30 11:09:24;;;;;;;5.03;4.72;;;5.90;85.20;;;;;;5022371;28;20199;-82
2021/01/30 11:12:06;;;;;;;4.30;4.10;;;5.50;87.40;;;;;;5053371;28;20204;-89
2021/01/30 11:14:32;;;;;;;5.13;4.72;;;5.40;87.90;;;;;;5049924;28;20240;-75
2021/01/30 11:17:00;;;;;;;4.73;4.43;;;5.40;88.30;;;;;;5027736;28;20177;-75
2021/01/30 11:19:32;;;;;;;4.47;4.20;;;5.40;89.40;;;;;;5051825;28;20455;-75
2021/01/30 11:22:16;;;;;;;4.30;4.10;;;5.50;89.20;;;;;;5053960;28;20640;-75
2021/01/30 11:24:47;;;;;;;4.03;3.83;;;5.50;88.70;;;;;;5049974;28;20241;-76
2021/01/30 11:27:37;;;;;;;3.90;3.70;;;5.50;88.40;;;;;;5054459;28;20551;-75
2021/01/30 11:30:17;;;;;;;4.22;3.92;;;5.30;88.40;;;;;;5074200;28;20192;-75
2021/01/30 11:32:47;;;;;;;3.95;3.75;;;5.20;88.10;;;;;;5036249;28;20174;-76
2021/01/30 11:35:35;;;;;;;4.43;4.13;;;5.10;89.40;;;;;;5021528;28;20185;-76
2021/01/30 11:38:14;;;;;;;4.97;4.68;;;5.20;88.30;;;;;;5035117;28;20174;-79
2021/01/30 11:40:40;;;;;;;3.88;3.70;;;4.70;88.10;;;;;;5017561;28;20173;-78
2021/01/30 11:43:07;;;;;;;3.97;3.78;;;4.60;90.30;;;;;;5016790;28;20182;-78
2021/01/30 11:45:32;;;;;;;4.40;4.00;;;4.50;90.00;;;;;;5034691;28;20178;-75
2021/01/30 11:47:59;;;;;;;3.87;3.63;;;4.40;90.80;;;;;;5015896;28;20178;-75
2021/01/30 11:50:25;;;;;;;3.90;3.70;;;4.50;90.80;;;;;;5033127;28;20417;-76
2021/01/30 11:52:50;;;;;;;3.90;3.70;;;4.60;91.20;;;;;;5034103;28;20169;-75
2021/01/30 11:55:19;;;;;;;3.93;3.70;;;4.50;90.60;;;;;;5031983;28;20429;-75
2021/01/30 11:57:45;;;;;;;4.20;3.90;;;4.50;90.50;;;;;;5049905;28;20181;-75
2021/01/30 12:00:12;;;;;;;4.10;3.90;;;4.50;90.50;;;;;;5052950;28;20189;-74
2021/01/30 12:02:40;;;;;;;4.60;4.30;;;4.50;91.10;;;;;;5053281;28;20503;-74
2021/01/30 12:05:09;;;;;;;3.63;3.53;;;4.70;90.90;;;;;;5045525;28;20190;-75
2021/01/30 12:07:35;;;;;;;3.70;3.50;;;4.90;90.80;;;;;;5032962;28;20175;-75
2021/01/30 12:10:01;;;;;;;4.07;3.87;;;4.70;90.60;;;;;;5032959;28;20206;-74
2021/01/30 12:12:27;;;;;;;4.47;4.18;;;5.00;91.10;;;;;;5044024;28;20181;-75
2021/01/30 12:14:53;;;;;;;3.83;3.63;;;5.10;90.50;;;;;;5047353;28;20543;-75
2021/01/30 12:17:30;;;;;;;4.40;4.10;;;4.90;90.00;;;;;;5040148;28;20482;-75
2021/01/30 12:19:56;;;;;;;4.05;3.85;;;5.00;90.30;;;;;;5039468;28;20196;-75
2021/01/30 12:22:22;;;;;;;4.70;4.40;;;5.10;91.10;;;;;;5040086;28;20189;-75
2021/01/30 12:24:48;;;;;;;4.40;4.10;;;5.20;91.70;;;;;;5041918;28;20174;-75
2021/01/30 12:27:16;;;;;;;3.85;3.65;;;5.40;90.90;;;;;;5041127;28;20174;-76
2021/01/30 12:29:47;;;;;;;4.10;3.90;;;5.40;90.40;;;;;;5042902;28;20580;-74
2021/01/30 12:32:14;;;;;;;4.50;4.30;;;5.30;90.00;;;;;;5033812;28;20171;-75
2021/01/30 12:34:40;;;;;;;5.30;5.00;;;5.30;90.50;;;;;;5034089;28;20185;-76
2021/01/30 12:37:06;;;;;;;4.80;4.60;;;5.30;90.00;;;;;;5032999;28;20182;-75
2021/01/30 12:39:33;;;;;;;3.03;2.92;;;5.40;90.30;;;;;;5033370;28;20281;-76
2021/01/30 12:41:59;;;;;;;3.58;3.30;;;5.30;89.00;;;;;;5043461;28;20190;-76
2021/01/30 12:44:25;;;;;;;4.07;3.87;;;5.30;89.60;;;;;;5048755;28;20775;-76
2021/01/30 12:47:01;;;;;;;4.50;4.20;;;5.30;89.00;;;;;;5049054;28;20503;-74
2021/01/30 12:49:27;;;;;;;3.85;3.65;;;5.00;88.30;;;;;;5033759;28;20197;-74
2021/01/30 12:51:52;;;;;;;3.80;3.60;;;5.10;90.00;;;;;;5033308;28;20661;-74
2021/01/30 12:54:20;;;;;;;4.63;4.30;;;5.10;89.60;;;;;;5039330;28;20179;-74
2021/01/30 12:56:46;;;;;;;4.00;3.80;;;5.10;89.90;;;;;;5032284;28;20179;-74
2021/01/30 12:59:12;;;;;;;3.13;3.03;;;5.10;90.40;;;;;;5031077;28;20255;-76
2021/01/30 13:01:38;;;;;;;3.70;3.50;;;5.30;90.90;;;;;;5032039;28;20201;-74
2021/01/30 13:04:05;;;;;;;4.40;4.10;;;5.40;90.60;;;;;;5031805;28;20647;-74
2021/01/30 13:06:32;;;;;;;6.28;4.47;;;5.50;90.00;;;;;;5031761;28;20421;-75
2021/01/30 13:08:58;;;;;;;5.82;5.53;;;5.60;89.70;;;;;;5050435;28;20255;-74
2021/01/30 13:11:24;;;;;;;5.43;5.07;;;5.50;88.60;;;;;;5045496;28;20217;-74
2021/01/30 13:13:49;;;;;;;4.97;4.77;;;5.70;89.40;;;;;;5037799;28;20700;-74
2021/01/30 13:16:15;;;;;;;4.87;4.57;;;5.60;87.60;;;;;;5031068;28;20886;-75